Time;durP1;ratioP1;P1;durP2;ratioP2;P2;SDS_P1;SDS_P2;PMS_P1;PMS_P2;Temp;Humidity;BMP_temperature;BMP_pressure;BME280_temperature;BME280_humidity;BME280_pressure;Samples;Min_cycle;Max_cycle;Signal;HPM_P1;HPM_P2
2022/11/09 00:01:42;;;;;;;;;;;11.30;99.90;;;;;;5000785;28;19925;-87
2022/11/09 00:04:08;;;;;;;;;;;11.30;99.90;;;;;;5000770;28;19925;-87
2022/11/09 00:06:34;;;;;;;;;;;11.30;99.90;;;;;;5017426;28;19932;-86
2022/11/09 00:09:00;;;;;;;;;;;11.30;99.90;;;;;;5034253;28;19925;-86
2022/11/09 00:11:26;;;;;;;;;;;11.30;99.90;;;;;;4984790;28;19925;-87
2022/11/09 00:13:52;;;;;;;;;;;11.30;99.90;;;;;;5000213;28;19936;-87
2022/11/09 00:16:19;;;;;;;;;;;11.20;99.90;;;;;;5000406;28;20019;-86
2022/11/09 00:18:47;;;;;;;;;;;11.30;99.90;;;;;;5016681;28;19968;-87
2022/11/09 00:21:17;;;;;;;;;;;11.20;99.90;;;;;;5000599;28;20369;-87
2022/11/09 00:23:42;;;;;;;;;;;11.70;99.90;;;;;;5000479;28;20023;-87
2022/11/09 00:26:09;;;;;;;;;;;11.30;99.90;;;;;;5017743;28;20089;-87
2022/11/09 00:28:35;;;;;;;;;;;11.30;99.90;;;;;;5016820;28;20357;-87
2022/11/09 00:31:02;;;;;;;;;;;11.30;99.90;;;;;;5017122;28;19928;-86
2022/11/09 00:33:27;;;;;;;;;;;11.30;99.90;;;;;;5016592;28;19925;-87
2022/11/09 00:35:53;;;;;;;;;;;11.30;99.90;;;;;;5000678;28;20247;-86
2022/11/09 00:38:19;;;;;;;;;;;11.30;99.90;;;;;;5015963;28;19968;-87
2022/11/09 00:40:44;;;;;;;;;;;11.20;99.90;;;;;;5000335;28;19951;-87
2022/11/09 00:43:10;;;;;;;;;;;11.20;99.90;;;;;;5000528;28;19925;-86
2022/11/09 00:45:35;;;;;;;;;;;11.20;99.90;;;;;;5017329;28;19925;-86
2022/11/09 00:48:02;;;;;;;;;;;11.20;99.90;;;;;;5000304;28;19929;-87
2022/11/09 00:50:28;;;;;;;;;;;11.20;99.90;;;;;;5016486;28;19925;-86
2022/11/09 00:52:54;;;;;;;;;;;11.20;99.90;;;;;;5000124;28;19980;-87
2022/11/09 00:55:20;;;;;;;;;;;11.20;99.90;;;;;;5000329;28;19932;-86
2022/11/09 00:57:49;;;;;;;;;;;11.20;99.90;;;;;;5000049;28;19925;-86
2022/11/09 01:00:22;;;;;;;;;;;11.20;99.90;;;;;;5000067;28;19925;-87
2022/11/09 01:02:50;;;;;;;;;;;11.10;99.90;;;;;;5000105;28;19968;-86
2022/11/09 01:05:16;;;;;;;;;;;11.10;99.90;;;;;;4999925;28;19925;-87
2022/11/09 01:07:42;;;;;;;;;;;11.10;99.90;;;;;;5016657;28;19929;-86
2022/11/09 01:10:07;;;;;;;;;;;11.00;99.90;;;;;;4999876;28;19933;-86
2022/11/09 01:12:33;;;;;;;;;;;11.00;99.90;;;;;;5000024;28;19947;-86
2022/11/09 01:14:59;;;;;;;;;;;11.00;99.90;;;;;;4973860;28;19976;-87
2022/11/09 01:17:25;;;;;;;;;;;11.00;99.90;;;;;;4980341;28;20289;-86
2022/11/09 01:19:50;;;;;;;;;;;10.90;99.90;;;;;;4996606;28;19926;-86
2022/11/09 01:22:17;;;;;;;;;;;10.80;99.90;;;;;;4996735;28;19926;-86
2022/11/09 01:24:43;;;;;;;;;;;10.80;99.90;;;;;;4980733;28;19948;-86
2022/11/09 01:27:09;;;;;;;;;;;10.80;99.90;;;;;;4981151;28;20362;-86
2022/11/09 01:29:34;;;;;;;;;;;10.80;99.90;;;;;;5017762;28;19932;-86
2022/11/09 01:32:00;;;;;;;;;;;10.80;99.90;;;;;;4984185;28;19925;-86
2022/11/09 01:34:26;;;;;;;;;;;10.90;99.90;;;;;;4984444;28;20368;-86
2022/11/09 01:36:52;;;;;;;;;;;10.90;99.90;;;;;;5001052;28;19929;-86
2022/11/09 01:39:18;;;;;;;;;;;10.90;99.90;;;;;;4983918;28;19926;-87
2022/11/09 01:41:44;;;;;;;;;;;10.90;99.90;;;;;;4984333;28;19926;-87
2022/11/09 01:44:10;;;;;;;;;;;10.90;99.90;;;;;;4984146;28;19948;-86
2022/11/09 01:46:38;;;;;;;;;;;11.00;99.90;;;;;;5000181;28;19983;-86
2022/11/09 01:49:07;;;;;;;;;;;11.10;99.90;;;;;;4983466;28;19932;-86
2022/11/09 01:51:38;;;;;;;;;;;11.10;99.90;;;;;;4999985;28;19926;-87
2022/11/09 01:54:07;;;;;;;;;;;11.10;99.90;;;;;;4983543;28;19925;-86
2022/11/09 01:56:33;;;;;;;;;;;11.20;99.90;;;;;;5000332;28;19932;-87
2022/11/09 01:59:00;;;;;;;;;;;11.20;99.90;;;;;;4983276;28;20277;-87
2022/11/09 02:01:26;;;;;;;;;;;11.30;99.90;;;;;;4999635;28;19925;-86
2022/11/09 02:03:55;;;;;;;;;;;11.30;99.90;;;;;;4999714;28;19936;-87
2022/11/09 02:06:22;;;;;;;;;;;11.30;99.90;;;;;;4983624;28;19929;-87
2022/11/09 02:08:48;;;;;;;;;;;11.40;99.90;;;;;;5000443;28;19926;-86
2022/11/09 02:11:18;;;;;;;;;;;11.40;99.90;;;;;;4999842;28;19949;-86
2022/11/09 02:13:46;;;;;;;;;;;11.40;99.90;;;;;;4999372;28;19932;-86
2022/11/09 02:16:13;;;;;;;;;;;11.40;99.90;;;;;;5002951;28;20281;-86
2022/11/09 02:18:43;;;;;;;;;;;11.40;99.90;;;;;;5019213;28;20377;-86
2022/11/09 02:21:08;;;;;;;;;;;11.30;99.90;;;;;;5019180;28;19925;-86
2022/11/09 02:23:34;;;;;;;;;;;11.20;99.90;;;;;;4986619;28;20039;-87
2022/11/09 02:26:05;;;;;;;;;;;11.10;99.90;;;;;;4986852;28;19948;-86
2022/11/09 02:28:31;;;;;;;;;;;11.00;99.90;;;;;;5018980;28;19925;-86
2022/11/09 02:30:57;;;;;;;;;;;11.00;99.90;;;;;;5019116;28;20412;-86
2022/11/09 02:33:23;;;;;;;;;;;11.00;99.90;;;;;;5003445;28;20262;-86
2022/11/09 02:35:49;;;;;;;;;;;10.90;99.90;;;;;;5002761;28;19932;-86
2022/11/09 02:38:14;;;;;;;;;;;10.90;99.90;;;;;;5018610;28;19925;-87
2022/11/09 02:40:41;;;;;;;;;;;10.90;99.90;;;;;;5001606;28;20043;-86
2022/11/09 02:43:08;;;;;;;;;;;10.90;99.90;;;;;;5001999;28;19925;-86
2022/11/09 02:45:34;;;;;;;;;;;10.80;99.90;;;;;;5003266;28;20251;-86
2022/11/09 02:48:00;;;;;;;;;;;10.80;99.90;;;;;;5019298;28;19955;-87
2022/11/09 02:50:25;;;;;;;;;;;10.80;99.90;;;;;;5018918;28;20380;-87
2022/11/09 02:52:51;;;;;;;;;;;10.80;99.90;;;;;;5002045;28;20077;-86
2022/11/09 02:55:16;;;;;;;;;;;10.70;99.90;;;;;;5018641;28;19925;-87
2022/11/09 02:57:42;;;;;;;;;;;10.70;99.90;;;;;;5018475;28;19936;-86
2022/11/09 03:00:08;;;;;;;;;;;10.80;99.90;;;;;;5018457;28;19925;-86
2022/11/09 03:02:34;;;;;;;;;;;10.70;99.90;;;;;;5019096;28;19925;-87
2022/11/09 03:04:59;;;;;;;;;;;10.70;99.90;;;;;;5001764;28;19925;-87
2022/11/09 03:07:25;;;;;;;;;;;10.70;99.90;;;;;;5019209;28;19972;-87
2022/11/09 03:09:52;;;;;;;;;;;10.80;99.90;;;;;;5002512;28;19964;-87
2022/11/09 03:12:30;;;;;;;;;;;10.80;99.90;;;;;;5001689;28;19975;-87
2022/11/09 03:14:56;;;;;;;;;;;10.70;99.90;;;;;;5018575;28;19977;-87
2022/11/09 03:17:22;;;;;;;;;;;10.70;99.90;;;;;;4985477;28;19929;-88
2022/11/09 03:19:48;;;;;;;;;;;10.70;99.90;;;;;;5001710;28;19931;-86
2022/11/09 03:22:13;;;;;;;;;;;10.80;99.90;;;;;;5001305;28;19925;-87
2022/11/09 03:24:39;;;;;;;;;;;10.80;99.90;;;;;;5001600;28;19932;-87
2022/11/09 03:27:05;;;;;;;;;;;10.90;99.90;;;;;;5017889;28;19925;-86
2022/11/09 03:29:30;;;;;;;;;;;10.80;99.90;;;;;;4985427;28;20008;-87
2022/11/09 03:31:56;;;;;;;;;;;10.80;99.90;;;;;;5002084;28;19932;-86
2022/11/09 03:34:21;;;;;;;;;;;10.80;99.90;;;;;;5017820;28;19987;-87
2022/11/09 03:36:47;;;;;;;;;;;10.80;99.90;;;;;;5001390;28;20384;-87
2022/11/09 03:39:13;;;;;;;;;;;10.80;99.90;;;;;;5000860;28;20007;-87
2022/11/09 03:41:38;;;;;;;;;;;10.70;99.90;;;;;;5017435;28;19925;-87
2022/11/09 03:44:04;;;;;;;;;;;10.70;99.90;;;;;;4985367;28;19983;-87
2022/11/09 03:46:30;;;;;;;;;;;10.60;99.90;;;;;;5018363;28;19925;-87
2022/11/09 03:48:56;;;;;;;;;;;10.60;99.90;;;;;;5018200;28;19948;-87
2022/11/09 03:51:21;;;;;;;;;;;10.60;99.90;;;;;;5016260;28;19929;-87
2022/11/09 03:53:47;;;;;;;;;;;10.60;99.90;;;;;;5017636;28;19925;-87
2022/11/09 03:56:12;;;;;;;;;;;10.50;99.90;;;;;;5000794;28;19925;-86
2022/11/09 03:58:38;;;;;;;;;;;10.50;99.90;;;;;;5017147;28;19926;-86
2022/11/09 04:01:04;;;;;;;;;;;10.50;99.90;;;;;;4984838;28;19925;-87
2022/11/09 04:03:29;;;;;;;;;;;10.50;99.90;;;;;;5017149;28;20019;-86
2022/11/09 04:05:57;;;;;;;;;;;10.50;99.90;;;;;;5017218;28;19936;-87
2022/11/09 04:08:22;;;;;;;;;;;10.50;99.90;;;;;;5000445;28;20408;-87
2022/11/09 04:10:48;;;;;;;;;;;10.50;99.90;;;;;;5000698;28;19925;-87
2022/11/09 04:13:13;;;;;;;;;;;10.40;99.90;;;;;;5016901;28;19932;-86
2022/11/09 04:15:39;;;;;;;;;;;10.40;99.90;;;;;;5000342;28;20309;-86
2022/11/09 04:18:05;;;;;;;;;;;10.30;99.90;;;;;;5016740;28;19976;-87
2022/11/09 04:20:31;;;;;;;;;;;10.30;99.90;;;;;;5016806;28;19925;-86
2022/11/09 04:23:01;;;;;;;;;;;10.30;99.90;;;;;;5000607;28;19925;-87
2022/11/09 04:25:27;;;;;;;;;;;10.30;99.90;;;;;;5017067;28;19926;-87
2022/11/09 04:27:54;;;;;;;;;;;10.20;99.90;;;;;;5017231;28;19978;-86
2022/11/09 04:30:20;;;;;;;;;;;10.20;99.90;;;;;;5017085;28;19925;-86
2022/11/09 04:32:45;;;;;;;;;;;10.20;99.90;;;;;;5000329;28;20282;-86
2022/11/09 04:35:11;;;;;;;;;;;10.20;99.90;;;;;;5000490;28;19929;-86
2022/11/09 04:37:36;;;;;;;;;;;10.20;99.90;;;;;;5000960;28;19925;-87
2022/11/09 04:40:02;;;;;;;;;;;10.10;99.90;;;;;;5000021;28;20340;-86
2022/11/09 04:42:28;;;;;;;;;;;10.10;99.90;;;;;;5000397;28;19951;-86
2022/11/09 04:44:53;;;;;;;;;;;10.20;99.90;;;;;;5000930;28;19926;-86
2022/11/09 04:47:19;;;;;;;;;;;10.20;99.90;;;;;;5000055;28;20270;-86
2022/11/09 04:49:44;;;;;;;;;;;10.50;99.90;;;;;;5000395;28;19925;-86
2022/11/09 04:52:10;;;;;;;;;;;10.30;99.90;;;;;;5000331;28;19931;-86
2022/11/09 04:54:36;;;;;;;;;;;10.30;99.90;;;;;;5000787;28;19933;-86
2022/11/09 04:57:01;;;;;;;;;;;10.30;99.90;;;;;;5016588;28;19936;-86
2022/11/09 04:59:27;;;;;;;;;;;10.40;99.90;;;;;;5016338;28;19925;-86
2022/11/09 05:01:52;;;;;;;;;;;10.40;99.90;;;;;;5001139;28;19978;-86
2022/11/09 05:04:18;;;;;;;;;;;10.40;99.90;;;;;;4989944;28;19947;-87
2022/11/09 05:06:43;;;;;;;;;;;10.50;99.90;;;;;;5022968;28;19925;-86
2022/11/09 05:09:09;;;;;;;;;;;10.50;99.90;;;;;;5022783;28;20258;-86
2022/11/09 05:11:35;;;;;;;;;;;10.50;99.90;;;;;;5006229;28;20384;-87
2022/11/09 05:14:01;;;;;;;;;;;10.50;99.90;;;;;;5006360;28;19929;-87
2022/11/09 05:16:28;;;;;;;;;;;11.10;99.90;;;;;;5005707;28;21472;-87
2022/11/09 05:18:54;;;;;;;;;;;10.50;99.90;;;;;;5023111;28;19952;-87
2022/11/09 05:21:20;;;;;;;;;;;10.50;99.90;;;;;;5023051;28;19932;-86
2022/11/09 05:23:58;;;;;;;;;;;10.50;99.90;;;;;;5022572;28;20420;-87
2022/11/09 05:26:27;;;;;;;;;;;10.50;99.90;;;;;;5023064;28;19925;-86
2022/11/09 05:28:53;;;;;;;;;;;10.60;99.90;;;;;;5022881;28;19925;-87
2022/11/09 05:31:19;;;;;;;;;;;10.50;99.90;;;;;;5006025;28;20365;-87
2022/11/09 05:33:47;;;;;;;;;;;10.50;99.90;;;;;;5022865;28;19975;-86
2022/11/09 05:36:12;;;;;;;;;;;10.50;99.90;;;;;;5022657;28;19925;-87
2022/11/09 05:38:38;;;;;;;;;;;10.40;99.90;;;;;;5022294;28;19932;-86
2022/11/09 05:41:03;;;;;;;;;;;10.40;99.90;;;;;;5006209;28;19971;-87
2022/11/09 05:43:29;;;;;;;;;;;10.40;99.90;;;;;;5022538;28;20059;-87
2022/11/09 05:45:55;;;;;;;;;;;10.50;99.90;;;;;;5005747;28;20373;-86
2022/11/09 05:48:20;;;;;;;;;;;10.60;99.90;;;;;;5005988;28;19925;-86
2022/11/09 05:50:47;;;;;;;;;;;10.60;99.90;;;;;;5022539;28;19933;-86
2022/11/09 05:53:13;;;;;;;;;;;10.60;99.90;;;;;;5006223;28;19925;-86
2022/11/09 05:55:38;;;;;;;;;;;10.50;99.90;;;;;;5006475;28;20428;-86
2022/11/09 05:58:04;;;;;;;;;;;10.50;99.90;;;;;;5021960;28;19925;-87
2022/11/09 06:00:30;;;;;;;;;;;10.50;99.90;;;;;;5022727;28;20023;-87
2022/11/09 06:03:03;;;;;;;;;;;9.70;99.90;;;;;;5022130;28;20031;-89
2022/11/09 06:05:28;;;;;;;;;;;10.50;99.90;;;;;;5023140;28;19925;-88
2022/11/09 06:07:54;;;;;;;;;;;10.50;99.90;;;;;;4989794;28;19932;-88
2022/11/09 06:10:20;;;;;;;;;;;10.50;99.90;;;;;;5005747;28;20020;-87
2022/11/09 06:12:49;;;;;;;;;;;10.50;99.90;;;;;;5006617;28;19925;-88
2022/11/09 06:15:15;;;;;;;;;;;10.50;99.90;;;;;;5034710;28;19932;-88
2022/11/09 06:17:40;;;;;;;;;;;10.40;99.90;;;;;;5002815;28;19925;-87
2022/11/09 06:20:06;;;;;;;;;;;10.50;99.90;;;;;;4986588;28;19929;-88
2022/11/09 06:22:31;;;;;;;;;;;10.40;99.90;;;;;;5003710;28;19991;-88
2022/11/09 06:24:57;;;;;;;;;;;10.40;99.90;;;;;;5019321;28;20281;-87
2022/11/09 06:27:23;;;;;;;;;;;10.60;99.90;;;;;;5002626;28;19925;-87
2022/11/09 06:29:48;;;;;;;;;;;10.30;99.90;;;;;;5019698;28;19926;-88
2022/11/09 06:32:14;;;;;;;;;;;10.40;99.90;;;;;;5019835;28;19925;-88
2022/11/09 06:34:41;;;;;;;;;;;9.80;99.90;;;;;;5019043;28;19933;-88
2022/11/09 06:37:07;;;;;;;;;;;10.20;99.90;;;;;;4986531;28;19925;-87
2022/11/09 06:39:32;;;;;;;;;;;10.30;99.90;;;;;;5018738;28;19925;-88
2022/11/09 06:41:58;;;;;;;;;;;10.20;99.90;;;;;;5002361;28;19925;-87
2022/11/09 06:44:23;;;;;;;;;;;10.10;99.90;;;;;;5018404;28;20396;-87
2022/11/09 06:46:49;;;;;;;;;;;10.10;99.90;;;;;;5002261;28;19975;-87
2022/11/09 06:49:15;;;;;;;;;;;10.00;99.90;;;;;;5002431;28;19929;-87
2022/11/09 06:51:40;;;;;;;;;;;10.10;99.90;;;;;;5018789;28;20383;-90
2022/11/09 06:54:06;;;;;;;;;;;10.10;99.90;;;;;;5002339;28;19925;-90
2022/11/09 06:56:32;;;;;;;;;;;10.10;99.90;;;;;;5001491;28;20019;-91
2022/11/09 06:58:57;;;;;;;;;;;10.10;99.90;;;;;;5002606;28;19975;-90
2022/11/09 07:01:25;;;;;;;;;;;10.20;99.90;;;;;;5020979;28;19963;-90
2022/11/09 07:03:51;;;;;;;;;;;10.30;99.90;;;;;;5003705;28;19932;-90
2022/11/09 07:06:17;;;;;;;;;;;10.20;99.90;;;;;;5002477;28;19925;-88
2022/11/09 07:08:42;;;;;;;;;;;10.10;99.90;;;;;;5018183;28;19978;-87
2022/11/09 07:11:10;;;;;;;;;;;10.10;99.90;;;;;;5002336;28;19932;-87
2022/11/09 07:13:36;;;;;;;;;;;10.10;99.90;;;;;;5018759;28;19929;-85
2022/11/09 07:16:02;;;;;;;;;;;10.20;99.90;;;;;;5001679;28;19929;-87
2022/11/09 07:18:28;;;;;;;;;;;10.10;99.90;;;;;;5001823;28;19925;-86
2022/11/09 07:20:53;;;;;;;;;;;10.10;99.90;;;;;;5019627;28;19933;-86
2022/11/09 07:23:21;;;;;;;;;;;10.20;99.90;;;;;;5001594;28;19932;-86
2022/11/09 07:25:47;;;;;;;;;;;10.20;99.90;;;;;;5018173;28;19932;-86
2022/11/09 07:28:13;;;;;;;;;;;10.20;99.90;;;;;;4987266;28;19925;-87
2022/11/09 07:30:39;;;;;;;;;;;10.20;99.90;;;;;;5004922;28;19909;-88
2022/11/09 07:33:16;;;;;;;;;;;10.20;99.90;;;;;;5024522;28;19997;-85
2022/11/09 07:35:42;;;;;;;;;;;10.20;99.90;;;;;;5041120;28;19936;-88
2022/11/09 07:38:08;;;;;;;;;;;10.20;99.90;;;;;;5023434;28;19925;-86
2022/11/09 07:40:34;;;;;;;;;;;10.20;99.90;;;;;;5038693;28;19936;-86
2022/11/09 07:43:00;;;;;;;;;;;10.30;99.90;;;;;;5007025;28;19980;-87
2022/11/09 07:45:27;;;;;;;;;;;10.20;99.90;;;;;;5041197;28;20080;-87
2022/11/09 07:47:57;;;;;;;;;;;10.20;99.90;;;;;;5005954;28;20297;-86
2022/11/09 07:50:22;;;;;;;;;;;10.30;99.90;;;;;;5002417;28;19936;-85
2022/11/09 07:52:48;;;;;;;;;;;10.30;99.90;;;;;;5018830;28;19925;-87
2022/11/09 07:55:14;;;;;;;;;;;10.30;99.90;;;;;;5018678;28;19925;-87
2022/11/09 07:57:39;;;;;;;;;;;10.30;99.90;;;;;;5001945;28;19925;-86
2022/11/09 08:00:05;;;;;;;;;;;10.40;99.90;;;;;;5000837;28;20360;-87
2022/11/09 08:02:31;;;;;;;;;;;10.40;99.90;;;;;;5024378;28;19925;-88
2022/11/09 08:04:56;;;;;;;;;;;10.40;99.90;;;;;;5024878;28;19949;-92
2022/11/09 08:07:22;;;;;;;;;;;10.50;99.90;;;;;;5020553;28;19913;-88
2022/11/09 08:09:48;;;;;;;;;;;10.50;99.90;;;;;;5074516;28;19909;-87
2022/11/09 08:12:14;;;;;;;;;;;10.10;99.90;;;;;;5025069;28;19913;-87
2022/11/09 08:14:39;;;;;;;;;;;10.60;99.90;;;;;;5056844;28;19925;-90
2022/11/09 08:17:05;;;;;;;;;;;10.70;99.90;;;;;;4987903;28;19926;-89
2022/11/09 08:19:31;;;;;;;;;;;9.70;99.90;;;;;;5000339;28;19929;-89
2022/11/09 08:21:56;;;;;;;;;;;10.70;99.90;;;;;;5000511;28;20003;-89
2022/11/09 08:24:22;;;;;;;;;;;10.80;99.90;;;;;;5000159;28;19951;-89
2022/11/09 08:26:48;;;;;;;;;;;10.80;99.90;;;;;;5000717;28;19932;-89
2022/11/09 08:29:14;;;;;;;;;;;10.80;99.90;;;;;;5000405;28;19925;-89
2022/11/09 08:31:40;;;;;;;;;;;10.80;99.90;;;;;;5016815;28;20266;-88
2022/11/09 08:34:11;;;;;;;;;;;9.40;99.90;;;;;;5000400;28;19931;-91
2022/11/09 08:36:37;;;;;;;;;;;11.00;99.90;;;;;;4999276;28;19925;-90
2022/11/09 08:39:03;;;;;;;;;;;10.90;99.90;;;;;;5000805;28;19932;-89
2022/11/09 08:41:28;;;;;;;;;;;11.00;99.90;;;;;;5000320;28;19925;-88
2022/11/09 08:43:54;;;;;;;;;;;11.10;99.90;;;;;;5016892;28;19968;-88
2022/11/09 08:46:19;;;;;;;;;;;11.10;99.90;;;;;;5000165;28;20016;-87
2022/11/09 08:48:45;;;;;;;;;;;11.20;99.90;;;;;;5032780;28;19929;-87
2022/11/09 08:51:11;;;;;;;;;;;11.20;99.90;;;;;;5016400;28;19928;-87
2022/11/09 08:53:37;;;;;;;;;;;11.20;99.90;;;;;;5016268;28;19972;-91
2022/11/09 08:56:04;;;;;;;;;;;11.30;99.90;;;;;;5002192;28;19957;-92
2022/11/09 08:58:30;;;;;;;;;;;11.30;99.90;;;;;;5000282;28;19951;-94
2022/11/09 09:00:56;;;;;;;;;;;11.30;99.90;;;;;;4984815;28;20027;-89
2022/11/09 09:03:21;;;;;;;;;;;11.30;99.90;;;;;;5000164;28;19929;-88
2022/11/09 09:05:47;;;;;;;;;;;11.40;99.90;;;;;;4999869;28;20011;-90
2022/11/09 09:08:14;;;;;;;;;;;11.40;99.90;;;;;;4983838;28;19951;-89
2022/11/09 09:10:40;;;;;;;;;;;10.00;99.90;;;;;;5000442;28;19932;-90
2022/11/09 09:13:06;;;;;;;;;;;11.70;99.90;;;;;;5016175;28;19925;-88
2022/11/09 09:15:31;;;;;;;;;;;11.50;99.90;;;;;;4999283;28;20300;-87
2022/11/09 09:18:04;;;;;;;;;;;11.70;99.90;;;;;;4999805;28;20317;-90
2022/11/09 09:20:29;;;;;;;;;;;11.60;99.90;;;;;;4999718;28;19926;-89
2022/11/09 09:22:58;;;;;;;;;;;11.80;99.90;;;;;;4999860;28;20051;-89
2022/11/09 09:25:24;;;;;;;;;;;11.60;99.90;;;;;;4999597;28;19952;-88
2022/11/09 09:27:53;;;;;;;;;;;11.70;99.90;;;;;;5016470;28;19925;-90
2022/11/09 09:30:19;;;;;;;;;;;11.70;99.90;;;;;;5000271;28;19976;-89
2022/11/09 09:32:44;;;;;;;;;;;11.70;99.90;;;;;;4999740;28;20418;-87
2022/11/09 09:35:10;;;;;;;;;;;11.70;99.90;;;;;;4983323;28;20020;-89
2022/11/09 09:37:36;;;;;;;;;;;11.80;99.90;;;;;;4999679;28;19925;-87
2022/11/09 09:40:01;;;;;;;;;;;11.90;99.90;;;;;;5016109;28;19929;-91
2022/11/09 09:42:41;;;;;;;;;;;11.90;99.90;;;;;;5000213;28;19926;-93
2022/11/09 09:45:27;;;;;;;;;;;11.90;99.90;;;;;;5000259;28;19944;-93
2022/11/09 09:47:58;;;;;;;;;;;12.00;99.90;;;;;;4999582;28;20319;-90
2022/11/09 09:50:28;;;;;;;;;;;12.00;99.90;;;;;;5002333;28;19931;-91
2022/11/09 09:52:56;;;;;;;;;;;12.10;99.90;;;;;;5003295;28;19925;-91
2022/11/09 09:55:40;;;;;;;;;;;12.10;99.90;;;;;;5003558;28;20365;-91
2022/11/09 09:58:10;;;;;;;;;;;12.30;99.90;;;;;;5003609;28;20016;-91
2022/11/09 10:00:37;;;;;;;;;;;12.20;99.90;;;;;;5003911;28;19926;-90
2022/11/09 10:03:03;;;;;;;;;;;12.30;99.90;;;;;;5003229;28;19932;-90
2022/11/09 10:05:38;;;;;;;;;;;12.40;99.90;;;;;;5004305;28;19925;-91
2022/11/09 10:08:41;;;;;;;;;;;12.50;99.90;;;;;;5003578;28;20372;-93
2022/11/09 10:11:13;;;;;;;;;;;11.40;99.90;;;;;;5004248;28;20313;-90
2022/11/09 10:13:39;;;;;;;;;;;12.50;99.90;;;;;;5020314;28;19925;-91
2022/11/09 10:16:04;;;;;;;;;;;12.60;99.90;;;;;;5002416;28;20455;-88
2022/11/09 10:18:30;;;;;;;;;;;12.70;99.90;;;;;;5002666;28;19932;-90
2022/11/09 10:21:02;;;;;;;;;;;12.70;99.90;;;;;;5002996;28;19925;-88
2022/11/09 10:23:33;;;;;;;;;;;12.80;99.90;;;;;;5003328;28;19925;-88
2022/11/09 10:26:04;;;;;;;;;;;12.80;99.90;;;;;;5002596;28;19925;-91
2022/11/09 10:28:29;;;;;;;;;;;12.80;99.90;;;;;;5003223;28;20254;-89
2022/11/09 10:30:57;;;;;;;;;;;12.40;99.90;;;;;;4986479;28;19925;-92
2022/11/09 10:33:23;;;;;;;;;;;12.80;99.90;;;;;;5018687;28;19982;-88
2022/11/09 10:35:55;;;;;;;;;;;12.80;99.90;;;;;;4986242;28;20353;-89
2022/11/09 10:38:24;;;;;;;;;;;12.80;99.90;;;;;;5002876;28;19925;-91
2022/11/09 10:40:59;;;;;;;;;;;12.80;99.90;;;;;;5002850;28;20019;-90
2022/11/09 10:43:25;;;;;;;;;;;12.90;99.90;;;;;;5002059;28;19932;-89
2022/11/09 10:46:04;;;;;;;;;;;12.90;99.90;;;;;;5002059;28;19925;-89
2022/11/09 10:48:37;;;;;;;;;;;13.50;99.90;;;;;;5003732;28;19925;-88
2022/11/09 10:51:03;;;;;;;;;;;12.90;99.90;;;;;;5002010;28;20015;-90
2022/11/09 10:53:32;;;;;;;;;;;12.90;99.90;;;;;;5018493;28;20019;-89
2022/11/09 10:56:04;;;;;;;;;;;12.90;99.90;;;;;;5018327;28;19979;-89
2022/11/09 10:58:32;;;;;;;;;;;12.90;99.90;;;;;;5002210;28;20021;-88
2022/11/09 11:01:11;;;;;;;;;;;12.90;99.90;;;;;;5001334;28;19926;-89
2022/11/09 11:03:38;;;;;;;;;;;12.90;99.90;;;;;;5019301;28;19931;-90
2022/11/09 11:06:13;;;;;;;;;;;12.90;99.90;;;;;;5002144;28;19932;-89
2022/11/09 11:08:40;;;;;;;;;;;13.10;99.90;;;;;;5001789;28;19925;-89
2022/11/09 11:11:24;;;;;;;;;;;13.20;99.90;;;;;;5018065;28;19930;-90
2022/11/09 11:13:50;;;;;;;;;;;13.30;99.90;;;;;;5018927;28;20329;-89
2022/11/09 11:16:22;;;;;;;;;;;13.40;99.90;;;;;;4985400;28;19935;-89
2022/11/09 11:18:50;;;;;;;;;;;13.30;99.90;;;;;;5001884;28;20285;-91
2022/11/09 11:21:17;;;;;;;;;;;13.30;99.90;;;;;;5018069;28;19925;-89
2022/11/09 11:23:43;;;;;;;;;;;13.30;99.90;;;;;;5001499;28;19931;-88
2022/11/09 11:26:16;;;;;;;;;;;13.30;99.90;;;;;;5001557;28;20020;-88
2022/11/09 11:28:47;;;;;;;;;;;13.20;99.90;;;;;;5018105;28;19995;-89
2022/11/09 11:31:17;;;;;;;;;;;13.30;99.90;;;;;;5001651;28;19925;-89
2022/11/09 11:33:43;;;;;;;;;;;13.20;99.90;;;;;;5002802;28;19925;-89
2022/11/09 11:36:21;;;;;;;;;;;13.20;99.90;;;;;;5003900;28;19948;-88
2022/11/09 11:38:52;;;;;;;;;;;13.10;99.90;;;;;;5001289;28;20020;-89
2022/11/09 11:41:37;;;;;;;;;;;13.10;99.90;;;;;;5018084;28;19932;-88
2022/11/09 11:44:11;;;;;;;;;;;13.10;99.90;;;;;;5001573;28;19952;-88
2022/11/09 11:46:46;;;;;;;;;;;13.20;99.90;;;;;;5002573;28;20339;-88
2022/11/09 11:49:33;;;;;;;;;;;13.20;99.90;;;;;;5007928;28;19932;-92
2022/11/09 11:52:25;;;;;;;;;;;13.10;99.90;;;;;;5023428;28;20289;-89
2022/11/09 11:55:06;;;;;;;;;;;13.10;99.90;;;;;;5002808;28;19925;-89
2022/11/09 11:57:41;;;;;;;;;;;13.10;99.90;;;;;;5005969;28;19929;-89
2022/11/09 12:00:10;;;;;;;;;;;13.00;99.90;;;;;;5003025;28;19932;-89
2022/11/09 12:02:55;;;;;;;;;;;13.10;99.90;;;;;;5017738;28;20332;-89
2022/11/09 12:05:27;;;;;;;;;;;13.20;99.90;;;;;;5001141;28;19932;-89
2022/11/09 12:08:03;;;;;;;;;;;13.20;99.90;;;;;;5018212;28;19925;-92
2022/11/09 12:10:47;;;;;;;;;;;13.20;99.90;;;;;;5001068;28;19931;-89
2022/11/09 12:13:39;;;;;;;;;;;13.20;99.90;;;;;;4999612;28;20456;-90
2022/11/09 12:16:19;;;;;;;;;;;13.10;99.90;;;;;;4996423;28;20038;-89
2022/11/09 12:18:55;;;;;;;;;;;13.00;99.90;;;;;;5017074;28;20008;-89
2022/11/09 12:21:26;;;;;;;;;;;13.00;99.90;;;;;;5016828;28;19925;-90
2022/11/09 12:24:10;;;;;;;;;;;13.00;99.90;;;;;;5017562;28;19929;-88
2022/11/09 12:26:55;;;;;;;;;;;13.00;99.90;;;;;;5001074;28;19925;-91
2022/11/09 12:29:23;;;;;;;;;;;13.00;99.90;;;;;;5036192;28;19932;-90
2022/11/09 12:32:07;;;;;;;;;;;13.10;99.90;;;;;;5019863;28;19925;-88
2022/11/09 12:34:32;;;;;;;;;;;12.60;99.90;;;;;;5017238;28;20369;-89
2022/11/09 12:37:03;;;;;;;;;;;13.20;99.90;;;;;;5017294;28;19932;-89
2022/11/09 12:39:35;;;;;;;;;;;13.30;99.90;;;;;;5000255;28;19955;-90
2022/11/09 12:42:04;;;;;;;;;;;13.30;99.90;;;;;;5001338;28;19929;-90
2022/11/09 12:44:41;;;;;;;;;;;13.30;99.90;;;;;;5018680;28;19932;-90
2022/11/09 12:47:14;;;;;;;;;;;13.40;99.90;;;;;;5005734;28;19929;-90
2022/11/09 12:49:41;;;;;;;;;;;13.50;99.90;;;;;;5001245;28;20394;-91
2022/11/09 12:52:12;;;;;;;;;;;13.50;99.90;;;;;;5000711;28;19925;-90
2022/11/09 12:54:41;;;;;;;;;;;13.50;99.90;;;;;;5000637;28;20286;-89
2022/11/09 12:57:24;;;;;;;;;;;12.90;99.90;;;;;;5000337;28;20020;-89
2022/11/09 12:59:52;;;;;;;;;;;13.40;99.90;;;;;;5016694;28;19925;-91
2022/11/09 13:02:20;;;;;;;;;;;13.30;99.90;;;;;;5000464;28;19925;-90
2022/11/09 13:04:56;;;;;;;;;;;12.40;99.90;;;;;;5000071;28;20008;-89
2022/11/09 13:07:43;;;;;;;;;;;13.10;99.90;;;;;;5002931;28;19936;-90
2022/11/09 13:10:22;;;;;;;;;;;13.00;99.90;;;;;;4999798;28;19933;-90
2022/11/09 13:12:48;;;;;;;;;;;12.90;99.90;;;;;;5016611;28;20392;-89
2022/11/09 13:15:22;;;;;;;;;;;12.70;99.90;;;;;;4999922;28;19925;-89
2022/11/09 13:18:06;;;;;;;;;;;12.70;99.90;;;;;;5016218;28;19929;-90
2022/11/09 13:20:35;;;;;;;;;;;12.60;99.90;;;;;;5000780;28;19936;-90
2022/11/09 13:23:02;;;;;;;;;;;12.60;99.90;;;;;;5000819;28;19932;-90
2022/11/09 13:25:43;;;;;;;;;;;12.60;99.90;;;;;;5020512;28;20376;-89
2022/11/09 13:28:27;;;;;;;;;;;12.60;99.90;;;;;;5004198;28;20030;-90
2022/11/09 13:30:57;;;;;;;;;;;12.60;99.90;;;;;;5020301;28;19928;-90
2022/11/09 13:33:25;;;;;;;;;;;11.30;99.90;;;;;;5003815;28;19926;-91
2022/11/09 13:35:51;;;;;;;;;;;12.60;99.90;;;;;;5020341;28;19925;-89
2022/11/09 13:38:21;;;;;;;;;;;12.60;99.90;;;;;;5003309;28;20377;-89
2022/11/09 13:40:50;;;;;;;;;;;12.60;99.90;;;;;;5004191;28;19931;-90
2022/11/09 13:43:17;;;;;;;;;;;12.70;99.90;;;;;;5021049;28;20042;-93
2022/11/09 13:45:44;;;;;;;;;;;12.80;99.90;;;;;;5003933;28;19932;-91
2022/11/09 13:48:23;;;;;;;;;;;12.90;99.90;;;;;;5003932;28;20394;-91
2022/11/09 13:50:59;;;;;;;;;;;12.90;99.90;;;;;;5020358;28;19929;-94
2022/11/09 13:53:37;;;;;;;;;;;13.00;99.90;;;;;;5019777;28;19968;-89
2022/11/09 13:56:23;;;;;;;;;;;13.10;99.90;;;;;;5020177;28;19929;-93
2022/11/09 13:58:52;;;;;;;;;;;13.10;99.90;;;;;;5019479;28;20007;-93
2022/11/09 14:01:29;;;;;;;;;;;13.10;99.90;;;;;;5020848;28;20283;-92
2022/11/09 14:03:54;;;;;;;;;;;13.00;99.90;;;;;;5003286;28;19972;-91
2022/11/09 14:06:20;;;;;;;;;;;13.00;99.90;;;;;;5019809;28;19967;-93
2022/11/09 14:08:46;;;;;;;;;;;13.00;99.90;;;;;;5003064;28;19936;-92
2022/11/09 14:11:20;;;;;;;;;;;12.90;99.90;;;;;;5004744;28;19928;-91
2022/11/09 14:13:55;;;;;;;;;;;12.80;99.90;;;;;;5003222;28;19924;-92
2022/11/09 14:16:40;;;;;;;;;;;12.80;99.90;;;;;;5003679;28;19948;-92
2022/11/09 14:19:12;;;;;;;;;;;12.80;99.90;;;;;;5037308;28;19976;-91
2022/11/09 14:21:41;;;;;;;;;;;12.70;99.90;;;;;;5003289;28;19931;-94
2022/11/09 14:24:15;;;;;;;;;;;12.70;99.90;;;;;;5002980;28;19925;-91